sensor_id;sensor_type;location;lat;lon;timestamp;pressure;altitude;pressure_sealevel;temperature;humidity
75740;BME280;64357;51.344;6.550;2022-11-15T00:00:31;100618.19;;;9.32;82.48
75740;BME280;64357;51.344;6.550;2022-11-15T00:02:57;100609.16;;;9.36;82.24
75740;BME280;64357;51.344;6.550;2022-11-15T00:05:24;100613.50;;;9.37;82.25
75740;BME280;64357;51.344;6.550;2022-11-15T00:07:52;100613.84;;;9.40;82.42
75740;BME280;64357;51.344;6.550;2022-11-15T00:10:17;100615.19;;;9.45;82.60
75740;BME280;64357;51.344;6.550;2022-11-15T00:12:42;100606.34;;;9.42;82.64
75740;BME280;64357;51.344;6.550;2022-11-15T00:15:09;100605.44;;;9.41;82.62
75740;BME280;64357;51.344;6.550;2022-11-15T00:17:34;100621.47;;;9.49;82.64
75740;BME280;64357;51.344;6.550;2022-11-15T00:19:59;100611.28;;;9.49;82.40
75740;BME280;64357;51.344;6.550;2022-11-15T00:22:31;100613.84;;;9.49;82.86
75740;BME280;64357;51.344;6.550;2022-11-15T00:24:57;100617.16;;;9.56;83.03
75740;BME280;64357;51.344;6.550;2022-11-15T00:27:22;100611.16;;;9.56;83.01
75740;BME280;64357;51.344;6.550;2022-11-15T00:29:47;100604.72;;;9.59;83.25
75740;BME280;64357;51.344;6.550;2022-11-15T00:32:13;100598.84;;;9.60;83.11
75740;BME280;64357;51.344;6.550;2022-11-15T00:34:41;100595.88;;;9.65;83.15
75740;BME280;64357;51.344;6.550;2022-11-15T00:37:06;100593.31;;;9.65;83.25
75740;BME280;64357;51.344;6.550;2022-11-15T00:39:33;100593.78;;;9.69;83.32
75740;BME280;64357;51.344;6.550;2022-11-15T00:42:01;100592.13;;;9.70;83.27
75740;BME280;64357;51.344;6.550;2022-11-15T00:44:26;100599.91;;;9.71;83.79
75740;BME280;64357;51.344;6.550;2022-11-15T00:46:54;100610.72;;;9.77;83.27
75740;BME280;64357;51.344;6.550;2022-11-15T00:49:20;100599.75;;;9.78;83.32
75740;BME280;64357;51.344;6.550;2022-11-15T00:51:45;100598.44;;;9.82;83.31
75740;BME280;64357;51.344;6.550;2022-11-15T00:54:12;100602.19;;;9.85;83.40
75740;BME280;64357;51.344;6.550;2022-11-15T00:56:40;100594.81;;;9.88;83.66
75740;BME280;64357;51.344;6.550;2022-11-15T00:59:06;100594.25;;;9.91;83.30
75740;BME280;64357;51.344;6.550;2022-11-15T01:01:31;100584.03;;;9.91;83.57
75740;BME280;64357;51.344;6.550;2022-11-15T01:03:57;100593.63;;;9.94;83.55
75740;BME280;64357;51.344;6.550;2022-11-15T01:06:22;100590.31;;;9.95;83.72
75740;BME280;64357;51.344;6.550;2022-11-15T01:08:50;100594.22;;;10.00;83.71
75740;BME280;64357;51.344;6.550;2022-11-15T01:11:19;100594.97;;;9.99;83.40
75740;BME280;64357;51.344;6.550;2022-11-15T01:13:46;100588.38;;;10.01;83.43
75740;BME280;64357;51.344;6.550;2022-11-15T01:16:15;100593.91;;;10.05;83.42
75740;BME280;64357;51.344;6.550;2022-11-15T01:18:46;100594.06;;;10.07;83.85
75740;BME280;64357;51.344;6.550;2022-11-15T01:21:14;100588.66;;;10.12;83.65
75740;BME280;64357;51.344;6.550;2022-11-15T01:23:39;100586.41;;;10.15;83.58
75740;BME280;64357;51.344;6.550;2022-11-15T01:26:09;100585.66;;;10.17;83.92
75740;BME280;64357;51.344;6.550;2022-11-15T01:28:37;100584.63;;;10.14;84.00
75740;BME280;64357;51.344;6.550;2022-11-15T01:31:05;100579.50;;;10.14;83.68
75740;BME280;64357;51.344;6.550;2022-11-15T01:33:34;100579.03;;;10.19;83.84
75740;BME280;64357;51.344;6.550;2022-11-15T01:36:06;100575.59;;;10.18;83.97
75740;BME280;64357;51.344;6.550;2022-11-15T01:38:33;100571.38;;;10.19;84.11
75740;BME280;64357;51.344;6.550;2022-11-15T01:41:01;100555.78;;;10.15;84.10
75740;BME280;64357;51.344;6.550;2022-11-15T01:43:35;100573.47;;;10.23;84.16
75740;BME280;64357;51.344;6.550;2022-11-15T01:46:10;100582.97;;;10.24;84.45
75740;BME280;64357;51.344;6.550;2022-11-15T01:48:39;100568.38;;;10.23;84.12
75740;BME280;64357;51.344;6.550;2022-11-15T01:51:08;100564.50;;;10.26;84.11
75740;BME280;64357;51.344;6.550;2022-11-15T01:53:37;100560.31;;;10.27;84.18
75740;BME280;64357;51.344;6.550;2022-11-15T01:56:06;100565.53;;;10.28;84.55
75740;BME280;64357;51.344;6.550;2022-11-15T01:58:33;100564.19;;;10.32;84.23
75740;BME280;64357;51.344;6.550;2022-11-15T02:00:59;100556.53;;;10.32;84.38
75740;BME280;64357;51.344;6.550;2022-11-15T02:03:31;100560.25;;;10.35;84.29
75740;BME280;64357;51.344;6.550;2022-11-15T02:06:01;100554.84;;;10.41;84.23
75740;BME280;64357;51.344;6.550;2022-11-15T02:08:28;100558.44;;;10.43;84.37
75740;BME280;64357;51.344;6.550;2022-11-15T02:10:54;100549.41;;;10.47;84.15
75740;BME280;64357;51.344;6.550;2022-11-15T02:13:21;100538.31;;;10.46;84.07
75740;BME280;64357;51.344;6.550;2022-11-15T02:30:47;100542.72;;;10.66;84.03
75740;BME280;64357;51.344;6.550;2022-11-15T02:36:00;100541.25;;;10.68;84.28
75740;BME280;64357;51.344;6.550;2022-11-15T02:41:04;100530.41;;;10.71;83.81
75740;BME280;64357;51.344;6.550;2022-11-15T02:43:46;100525.59;;;10.74;84.07
75740;BME280;64357;51.344;6.550;2022-11-15T02:47:18;100524.06;;;10.76;84.11
75740;BME280;64357;51.344;6.550;2022-11-15T02:49:37;100527.81;;;10.79;83.98
75740;BME280;64357;51.344;6.550;2022-11-15T02:52:03;100529.13;;;10.84;83.87
75740;BME280;64357;51.344;6.550;2022-11-15T02:54:32;100527.19;;;10.82;84.07
75740;BME280;64357;51.344;6.550;2022-11-15T02:57:04;100536.50;;;10.81;84.12
75740;BME280;64357;51.344;6.550;2022-11-15T03:15:47;100516.75;;;10.98;83.88
75740;BME280;64357;51.344;6.550;2022-11-15T03:18:23;100515.22;;;11.00;83.81
75740;BME280;64357;51.344;6.550;2022-11-15T03:20:55;100508.19;;;10.97;84.00
75740;BME280;64357;51.344;6.550;2022-11-15T03:23:25;100511.91;;;11.01;83.51
75740;BME280;64357;51.344;6.550;2022-11-15T03:25:52;100505.13;;;11.01;83.97
75740;BME280;64357;51.344;6.550;2022-11-15T03:28:37;100510.31;;;11.11;83.65
75740;BME280;64357;51.344;6.550;2022-11-15T03:31:06;100507.31;;;11.15;83.63
75740;BME280;64357;51.344;6.550;2022-11-15T03:33:53;100501.56;;;11.18;83.46
75740;BME280;64357;51.344;6.550;2022-11-15T03:36:25;100504.53;;;11.23;83.33
75740;BME280;64357;51.344;6.550;2022-11-15T03:38:54;100501.22;;;11.24;83.73
75740;BME280;64357;51.344;6.550;2022-11-15T03:41:31;100488.31;;;11.22;83.46
75740;BME280;64357;51.344;6.550;2022-11-15T03:44:16;100499.84;;;11.27;83.61
75740;BME280;64357;51.344;6.550;2022-11-15T03:46:57;100494.31;;;11.23;83.82
75740;BME280;64357;51.344;6.550;2022-11-15T03:49:30;100492.00;;;11.26;83.46
75740;BME280;64357;51.344;6.550;2022-11-15T03:51:58;100500.13;;;11.30;83.63
75740;BME280;64357;51.344;6.550;2022-11-15T03:54:24;100492.75;;;11.33;83.45
75740;BME280;64357;51.344;6.550;2022-11-15T03:56:49;100494.41;;;11.33;83.54
75740;BME280;64357;51.344;6.550;2022-11-15T03:59:15;100490.44;;;11.36;83.56
75740;BME280;64357;51.344;6.550;2022-11-15T04:01:40;100489.41;;;11.34;83.88
75740;BME280;64357;51.344;6.550;2022-11-15T04:04:08;100496.31;;;11.35;83.96
75740;BME280;64357;51.344;6.550;2022-11-15T04:06:34;100484.94;;;11.32;84.15
75740;BME280;64357;51.344;6.550;2022-11-15T04:09:00;100492.09;;;11.36;84.32
75740;BME280;64357;51.344;6.550;2022-11-15T04:11:25;100489.53;;;11.36;83.95
75740;BME280;64357;51.344;6.550;2022-11-15T04:13:50;100488.03;;;11.38;84.55
75740;BME280;64357;51.344;6.550;2022-11-15T04:16:20;100493.16;;;11.38;84.14
75740;BME280;64357;51.344;6.550;2022-11-15T04:18:47;100493.72;;;11.44;83.86
75740;BME280;64357;51.344;6.550;2022-11-15T04:21:35;100492.19;;;11.46;83.87
75740;BME280;64357;51.344;6.550;2022-11-15T04:24:20;100494.59;;;11.44;84.24
75740;BME280;64357;51.344;6.550;2022-11-15T04:26:47;100498.19;;;11.46;84.23
75740;BME280;64357;51.344;6.550;2022-11-15T04:29:15;100489.75;;;11.47;83.81
75740;BME280;64357;51.344;6.550;2022-11-15T04:31:59;100489.88;;;11.49;84.32
75740;BME280;64357;51.344;6.550;2022-11-15T04:34:27;100489.75;;;11.47;84.22
75740;BME280;64357;51.344;6.550;2022-11-15T04:36:54;100494.09;;;11.48;84.03
75740;BME280;64357;51.344;6.550;2022-11-15T04:39:39;100485.28;;;11.45;84.61
75740;BME280;64357;51.344;6.550;2022-11-15T04:42:08;100486.94;;;11.44;84.51
75740;BME280;64357;51.344;6.550;2022-11-15T04:44:33;100490.94;;;11.51;84.20
75740;BME280;64357;51.344;6.550;2022-11-15T04:46:59;100485.69;;;11.50;84.35
75740;BME280;64357;51.344;6.550;2022-11-15T04:49:29;100491.97;;;11.53;84.42
75740;BME280;64357;51.344;6.550;2022-11-15T04:51:55;100490.94;;;11.51;84.17
75740;BME280;64357;51.344;6.550;2022-11-15T04:54:20;100487.59;;;11.52;84.44
75740;BME280;64357;51.344;6.550;2022-11-15T04:56:50;100490.16;;;11.52;84.64
75740;BME280;64357;51.344;6.550;2022-11-15T04:59:16;100486.72;;;11.52;84.39
75740;BME280;64357;51.344;6.550;2022-11-15T05:01:41;100491.97;;;11.53;84.62
75740;BME280;64357;51.344;6.550;2022-11-15T05:04:09;100470.06;;;11.46;84.55
75740;BME280;64357;51.344;6.550;2022-11-15T05:06:48;100483.53;;;11.54;84.38
75740;BME280;64357;51.344;6.550;2022-11-15T05:09:14;100490.31;;;11.54;84.73
75740;BME280;64357;51.344;6.550;2022-11-15T05:11:40;100491.19;;;11.54;84.51
75740;BME280;64357;51.344;6.550;2022-11-15T05:14:06;100487.59;;;11.52;84.79
75740;BME280;64357;51.344;6.550;2022-11-15T05:16:31;100493.63;;;11.53;84.80
75740;BME280;64357;51.344;6.550;2022-11-15T05:18:59;100490.31;;;11.54;84.50
75740;BME280;64357;51.344;6.550;2022-11-15T05:21:24;100488.50;;;11.53;84.64
75740;BME280;64357;51.344;6.550;2022-11-15T05:23:52;100482.63;;;11.54;84.50
75740;BME280;64357;51.344;6.550;2022-11-15T05:26:18;100478.56;;;11.56;84.49
75740;BME280;64357;51.344;6.550;2022-11-15T05:28:43;100477.78;;;11.57;84.66
75740;BME280;64357;51.344;6.550;2022-11-15T05:31:11;100478.56;;;11.56;84.53
75740;BME280;64357;51.344;6.550;2022-11-15T05:33:38;100478.28;;;11.53;84.37
75740;BME280;64357;51.344;6.550;2022-11-15T05:36:09;100466.50;;;11.55;84.18
75740;BME280;64357;51.344;6.550;2022-11-15T05:38:35;100474.34;;;11.56;84.56
75740;BME280;64357;51.344;6.550;2022-11-15T05:41:01;100478.41;;;11.54;84.70
75740;BME280;64357;51.344;6.550;2022-11-15T05:43:32;100468.03;;;11.53;84.68
75740;BME280;64357;51.344;6.550;2022-11-15T05:45:59;100467.91;;;11.51;84.70
75740;BME280;64357;51.344;6.550;2022-11-15T05:48:25;100468.03;;;11.53;84.51
75740;BME280;64357;51.344;6.550;2022-11-15T05:50:51;100460.50;;;11.54;84.95
75740;BME280;64357;51.344;6.550;2022-11-15T05:53:19;100468.94;;;11.53;84.66
75740;BME280;64357;51.344;6.550;2022-11-15T05:55:46;100464.47;;;11.51;84.60
75740;BME280;64357;51.344;6.550;2022-11-15T05:58:12;100466.38;;;11.53;84.59
75740;BME280;64357;51.344;6.550;2022-11-15T06:00:37;100466.25;;;11.52;84.75
75740;BME280;64357;51.344;6.550;2022-11-15T06:03:03;100469.56;;;11.51;85.01
75740;BME280;64357;51.344;6.550;2022-11-15T06:05:28;100476.97;;;11.47;84.54
75740;BME280;64357;51.344;6.550;2022-11-15T06:07:59;100476.34;;;11.50;85.14
75740;BME280;64357;51.344;6.550;2022-11-15T06:10:25;100487.59;;;11.52;84.72
75740;BME280;64357;51.344;6.550;2022-11-15T06:12:59;100486.59;;;11.50;85.20
75740;BME280;64357;51.344;6.550;2022-11-15T06:15:25;100486.59;;;11.50;84.97
75740;BME280;64357;51.344;6.550;2022-11-15T06:17:53;100484.75;;;11.49;84.76
75740;BME280;64357;51.344;6.550;2022-11-15T06:20:24;100488.38;;;11.51;84.73
75740;BME280;64357;51.344;6.550;2022-11-15T06:22:59;100485.41;;;11.46;85.24
75740;BME280;64357;51.344;6.550;2022-11-15T06:25:26;100490.81;;;11.50;85.17
75740;BME280;64357;51.344;6.550;2022-11-15T06:27:55;100487.31;;;11.49;85.15
75740;BME280;64357;51.344;6.550;2022-11-15T06:30:22;100479.09;;;11.43;84.86
75740;BME280;64357;51.344;6.550;2022-11-15T06:32:47;100487.19;;;11.47;85.34
75740;BME280;64357;51.344;6.550;2022-11-15T06:35:13;100484.63;;;11.47;85.03
75740;BME280;64357;51.344;6.550;2022-11-15T06:37:39;100488.25;;;11.50;85.05
75740;BME280;64357;51.344;6.550;2022-11-15T06:40:06;100490.66;;;11.48;85.12
75740;BME280;64357;51.344;6.550;2022-11-15T06:42:32;100486.44;;;11.48;84.80
75740;BME280;64357;51.344;6.550;2022-11-15T06:45:02;100488.84;;;11.47;85.36
75740;BME280;64357;51.344;6.550;2022-11-15T06:47:30;100484.63;;;11.47;85.44
75740;BME280;64357;51.344;6.550;2022-11-15T06:49:55;100483.75;;;11.47;84.93
75740;BME280;64357;51.344;6.550;2022-11-15T06:52:20;100490.94;;;11.51;84.82
75740;BME280;64357;51.344;6.550;2022-11-15T06:54:48;100486.72;;;11.52;84.68
75740;BME280;64357;51.344;6.550;2022-11-15T06:57:18;100496.31;;;11.54;85.16
75740;BME280;64357;51.344;6.550;2022-11-15T06:59:44;100506.69;;;11.56;85.03
75740;BME280;64357;51.344;6.550;2022-11-15T07:02:13;100500.53;;;11.54;84.58
75740;BME280;64357;51.344;6.550;2022-11-15T07:04:38;100511.81;;;11.56;84.52
75740;BME280;64357;51.344;6.550;2022-11-15T07:07:04;100514.63;;;11.59;84.29
75740;BME280;64357;51.344;6.550;2022-11-15T07:09:29;100516.09;;;11.65;83.92
75740;BME280;64357;51.344;6.550;2022-11-15T07:11:54;100524.19;;;11.70;82.74
75740;BME280;64357;51.344;6.550;2022-11-15T07:14:20;100522.94;;;11.75;82.43
75740;BME280;64357;51.344;6.550;2022-11-15T07:16:48;100525.91;;;11.80;81.86
75740;BME280;64357;51.344;6.550;2022-11-15T07:19:13;100539.69;;;11.90;80.90
75740;BME280;64357;51.344;6.550;2022-11-15T07:21:38;100529.81;;;11.85;81.10
75740;BME280;64357;51.344;6.550;2022-11-15T07:24:06;100551.19;;;11.85;80.52
75740;BME280;64357;51.344;6.550;2022-11-15T07:26:31;100550.13;;;11.83;81.36
75740;BME280;64357;51.344;6.550;2022-11-15T07:28:57;100552.56;;;11.82;81.46
75740;BME280;64357;51.344;6.550;2022-11-15T07:31:22;100557.19;;;11.67;81.88
75740;BME280;64357;51.344;6.550;2022-11-15T07:33:50;100561.72;;;11.61;82.43
75740;BME280;64357;51.344;6.550;2022-11-15T07:36:15;100559.66;;;11.57;82.44
75740;BME280;64357;51.344;6.550;2022-11-15T07:38:43;100569.91;;;11.57;82.57
75740;BME280;64357;51.344;6.550;2022-11-15T07:41:08;100564.91;;;11.58;82.73
75740;BME280;64357;51.344;6.550;2022-11-15T07:43:34;100572.38;;;11.46;83.30
75740;BME280;64357;51.344;6.550;2022-11-15T07:46:05;100574.78;;;11.45;83.36
75740;BME280;64357;51.344;6.550;2022-11-15T07:48:30;100575.00;;;11.38;83.50
75740;BME280;64357;51.344;6.550;2022-11-15T07:50:56;100578.03;;;11.34;83.94
75740;BME280;64357;51.344;6.550;2022-11-15T07:53:21;100578.94;;;11.26;84.76
75740;BME280;64357;51.344;6.550;2022-11-15T07:55:46;100592.56;;;11.16;86.38
75740;BME280;64357;51.344;6.550;2022-11-15T07:58:14;100592.47;;;11.06;87.13
75740;BME280;64357;51.344;6.550;2022-11-15T08:00:39;100589.31;;;11.08;86.89
75740;BME280;64357;51.344;6.550;2022-11-15T08:05:35;100606.00;;;11.05;86.33
75740;BME280;64357;51.344;6.550;2022-11-15T08:08:06;100594.78;;;10.94;86.65
75740;BME280;64357;51.344;6.550;2022-11-15T08:10:32;100599.28;;;10.97;86.45
75740;BME280;64357;51.344;6.550;2022-11-15T08:13:16;100587.34;;;11.06;85.82
75740;BME280;64357;51.344;6.550;2022-11-15T08:15:42;100585.69;;;11.06;85.53
75740;BME280;64357;51.344;6.550;2022-11-15T08:18:13;100593.03;;;11.12;85.59
75740;BME280;64357;51.344;6.550;2022-11-15T08:20:42;100586.25;;;11.12;84.72
75740;BME280;64357;51.344;6.550;2022-11-15T08:23:10;100595.22;;;10.99;85.75
75740;BME280;64357;51.344;6.550;2022-11-15T08:25:35;100579.66;;;11.14;85.02
75740;BME280;64357;51.344;6.550;2022-11-15T08:28:04;100576.94;;;11.13;84.31
75740;BME280;64357;51.344;6.550;2022-11-15T08:30:37;100576.56;;;11.27;84.28
75740;BME280;64357;51.344;6.550;2022-11-15T08:33:05;100575.38;;;11.24;83.72
75740;BME280;64357;51.344;6.550;2022-11-15T08:35:31;100570.78;;;11.38;83.23
75740;BME280;64357;51.344;6.550;2022-11-15T08:37:56;100566.91;;;11.33;83.81
75740;BME280;64357;51.344;6.550;2022-11-15T08:40:21;100560.34;;;11.18;84.43
75740;BME280;64357;51.344;6.550;2022-11-15T08:42:49;100568.09;;;11.09;84.49
75740;BME280;64357;51.344;6.550;2022-11-15T08:45:14;100562.41;;;11.03;84.96
75740;BME280;64357;51.344;6.550;2022-11-15T08:47:40;100564.34;;;11.06;85.27
75740;BME280;64357;51.344;6.550;2022-11-15T08:50:06;100556.97;;;11.09;85.11
75740;BME280;64357;51.344;6.550;2022-11-15T08:52:32;100555.44;;;11.11;85.49
75740;BME280;64357;51.344;6.550;2022-11-15T08:54:57;100547.00;;;11.12;86.34
75740;BME280;64357;51.344;6.550;2022-11-15T08:57:23;100549.00;;;11.06;86.59
75740;BME280;64357;51.344;6.550;2022-11-15T08:59:48;100543.91;;;11.06;86.79
75740;BME280;64357;51.344;6.550;2022-11-15T09:02:14;100541.06;;;11.03;86.62
75740;BME280;64357;51.344;6.550;2022-11-15T09:04:41;100547.81;;;11.02;86.61
75740;BME280;64357;51.344;6.550;2022-11-15T09:07:06;100540.31;;;11.04;86.27
75740;BME280;64357;51.344;6.550;2022-11-15T09:09:32;100547.78;;;11.11;85.87
75740;BME280;64357;51.344;6.550;2022-11-15T09:11:57;100538.31;;;11.10;85.28
75740;BME280;64357;51.344;6.550;2022-11-15T09:14:23;100541.91;;;11.12;85.49
75740;BME280;64357;51.344;6.550;2022-11-15T09:16:48;100547.31;;;11.15;85.11
75740;BME280;64357;51.344;6.550;2022-11-15T09:19:13;100551.53;;;11.14;84.91
75740;BME280;64357;51.344;6.550;2022-11-15T09:21:40;100542.03;;;11.13;84.54
75740;BME280;64357;51.344;6.550;2022-11-15T09:24:05;100550.81;;;11.26;84.16
75740;BME280;64357;51.344;6.550;2022-11-15T09:26:30;100544.22;;;11.28;83.72
75740;BME280;64357;51.344;6.550;2022-11-15T09:28:56;100547.81;;;11.30;83.42
75740;BME280;64357;51.344;6.550;2022-11-15T09:31:21;100548.69;;;11.30;82.73
75740;BME280;64357;51.344;6.550;2022-11-15T09:33:46;100534.41;;;11.32;82.62
75740;BME280;64357;51.344;6.550;2022-11-15T09:36:14;100538.44;;;11.39;82.13
75740;BME280;64357;51.344;6.550;2022-11-15T09:38:39;100530.25;;;11.43;81.34
75740;BME280;64357;51.344;6.550;2022-11-15T09:43:57;100514.34;;;11.74;80.33
75740;BME280;64357;51.344;6.550;2022-11-15T09:49:31;100503.16;;;11.83;79.41
75740;BME280;64357;51.344;6.550;2022-11-15T09:52:02;100510.97;;;11.84;79.56
75740;BME280;64357;51.344;6.550;2022-11-15T10:05:12;100480.78;;;12.19;74.14
75740;BME280;64357;51.344;6.550;2022-11-15T10:13:03;100471.38;;;12.39;70.47
75740;BME280;64357;51.344;6.550;2022-11-15T10:15:32;100457.56;;;12.47;70.29
75740;BME280;64357;51.344;6.550;2022-11-15T10:20:26;100462.66;;;12.37;71.46
75740;BME280;64357;51.344;6.550;2022-11-15T10:23:05;100448.84;;;12.35;71.11
75740;BME280;64357;51.344;6.550;2022-11-15T10:25:33;100452.69;;;12.40;70.82
75740;BME280;64357;51.344;6.550;2022-11-15T10:28:06;100446.03;;;12.42;71.04
75740;BME280;64357;51.344;6.550;2022-11-15T10:30:44;100448.47;;;12.40;70.99
75740;BME280;64357;51.344;6.550;2022-11-15T10:39:00;100445.28;;;12.53;69.27
75740;BME280;64357;51.344;6.550;2022-11-15T10:46:33;100430.81;;;12.64;67.86
75740;BME280;64357;51.344;6.550;2022-11-15T10:51:48;100415.56;;;12.75;67.01
75740;BME280;64357;51.344;6.550;2022-11-15T10:54:22;100407.00;;;12.85;65.75
75740;BME280;64357;51.344;6.550;2022-11-15T10:56:55;100411.72;;;12.80;65.57
75740;BME280;64357;51.344;6.550;2022-11-15T10:59:28;100410.31;;;12.94;65.03
75740;BME280;64357;51.344;6.550;2022-11-15T11:01:54;100405.28;;;13.06;65.42
75740;BME280;64357;51.344;6.550;2022-11-15T11:04:20;100414.25;;;13.11;63.22
75740;BME280;64357;51.344;6.550;2022-11-15T11:06:50;100414.66;;;13.16;61.70
75740;BME280;64357;51.344;6.550;2022-11-15T11:09:28;100408.25;;;13.31;61.50
75740;BME280;64357;51.344;6.550;2022-11-15T11:11:54;100402.34;;;13.64;60.49
75740;BME280;64357;51.344;6.550;2022-11-15T11:14:33;100394.06;;;14.32;58.35
75740;BME280;64357;51.344;6.550;2022-11-15T11:28:02;100393.47;;;13.71;59.02
75740;BME280;64357;51.344;6.550;2022-11-15T11:33:22;100388.34;;;13.71;58.97
75740;BME280;64357;51.344;6.550;2022-11-15T11:36:03;100377.25;;;13.82;58.76
75740;BME280;64357;51.344;6.550;2022-11-15T11:49:39;100370.25;;;14.01;55.54
75740;BME280;64357;51.344;6.550;2022-11-15T11:54:49;100374.38;;;13.89;55.03
75740;BME280;64357;51.344;6.550;2022-11-15T11:57:45;100355.03;;;13.82;54.90
75740;BME280;64357;51.344;6.550;2022-11-15T12:00:20;100351.47;;;14.02;54.60
75740;BME280;64357;51.344;6.550;2022-11-15T12:03:15;100340.47;;;14.15;52.85
75740;BME280;64357;51.344;6.550;2022-11-15T12:05:51;100331.16;;;14.05;53.47
75740;BME280;64357;51.344;6.550;2022-11-15T12:11:10;100330.00;;;14.24;52.71
75740;BME280;64357;51.344;6.550;2022-11-15T12:13:42;100322.47;;;14.37;52.34
75740;BME280;64357;51.344;6.550;2022-11-15T12:16:17;100317.34;;;14.15;52.24
75740;BME280;64357;51.344;6.550;2022-11-15T12:18:49;100305.88;;;14.22;52.00
75740;BME280;64357;51.344;6.550;2022-11-15T12:24:04;100301.69;;;14.46;51.18
75740;BME280;64357;51.344;6.550;2022-11-15T12:26:40;100297.97;;;14.42;50.91
75740;BME280;64357;51.344;6.550;2022-11-15T12:29:31;100301.00;;;14.36;51.46
75740;BME280;64357;51.344;6.550;2022-11-15T12:32:00;100294.66;;;14.09;52.08
75740;BME280;64357;51.344;6.550;2022-11-15T12:34:29;100289.91;;;13.92;51.52
75740;BME280;64357;51.344;6.550;2022-11-15T12:37:01;100290.13;;;13.95;52.04
75740;BME280;64357;51.344;6.550;2022-11-15T12:42:41;100269.25;;;13.69;51.92
75740;BME280;64357;51.344;6.550;2022-11-15T12:45:26;100267.22;;;13.86;52.62
75740;BME280;64357;51.344;6.550;2022-11-15T12:47:52;100267.41;;;13.78;52.32
75740;BME280;64357;51.344;6.550;2022-11-15T12:50:54;100249.09;;;13.73;51.96
75740;BME280;64357;51.344;6.550;2022-11-15T12:58:57;100240.06;;;13.78;51.49
75740;BME280;64357;51.344;6.550;2022-11-15T13:04:22;100225.50;;;13.67;52.29
75740;BME280;64357;51.344;6.550;2022-11-15T13:12:01;100224.69;;;13.56;53.88
75740;BME280;64357;51.344;6.550;2022-11-15T13:30:40;100199.06;;;13.68;56.00
75740;BME280;64357;51.344;6.550;2022-11-15T13:33:23;100192.97;;;13.78;56.33
75740;BME280;64357;51.344;6.550;2022-11-15T13:35:51;100190.41;;;13.78;55.98
75740;BME280;64357;51.344;6.550;2022-11-15T13:38:29;100175.66;;;13.75;56.44
75740;BME280;64357;51.344;6.550;2022-11-15T13:40:57;100172.19;;;13.75;56.83
75740;BME280;64357;51.344;6.550;2022-11-15T13:48:48;100143.25;;;13.66;57.36
75740;BME280;64357;51.344;6.550;2022-11-15T13:54:13;100139.47;;;13.60;58.07
75740;BME280;64357;51.344;6.550;2022-11-15T13:56:45;100137.47;;;13.68;58.54
75740;BME280;64357;51.344;6.550;2022-11-15T14:01:49;100137.69;;;13.71;58.72
75740;BME280;64357;51.344;6.550;2022-11-15T14:04:19;100129.53;;;13.77;58.25
75740;BME280;64357;51.344;6.550;2022-11-15T14:06:50;100136.25;;;13.75;58.52
75740;BME280;64357;51.344;6.550;2022-11-15T14:11:52;100121.38;;;13.71;59.16
75740;BME280;64357;51.344;6.550;2022-11-15T14:14:19;100116.50;;;13.74;59.24
75740;BME280;64357;51.344;6.550;2022-11-15T14:16:48;100118.50;;;13.66;59.23
75740;BME280;64357;51.344;6.550;2022-11-15T14:22:11;100108.97;;;13.65;59.41
75740;BME280;64357;51.344;6.550;2022-11-15T14:24:37;100102.19;;;13.66;59.53
75740;BME280;64357;51.344;6.550;2022-11-15T14:27:22;100094.38;;;13.64;59.67
75740;BME280;64357;51.344;6.550;2022-11-15T14:29:48;100092.59;;;13.63;59.42
75740;BME280;64357;51.344;6.550;2022-11-15T14:35:15;100092.69;;;13.65;59.78
75740;BME280;64357;51.344;6.550;2022-11-15T14:37:41;100087.56;;;13.65;60.53
75740;BME280;64357;51.344;6.550;2022-11-15T14:40:06;100081.78;;;13.67;60.49
75740;BME280;64357;51.344;6.550;2022-11-15T14:42:34;100073.94;;;13.66;60.87
75740;BME280;64357;51.344;6.550;2022-11-15T14:44:59;100067.81;;;13.64;61.00
75740;BME280;64357;51.344;6.550;2022-11-15T14:47:25;100061.78;;;13.63;60.83
75740;BME280;64357;51.344;6.550;2022-11-15T14:49:52;100064.34;;;13.63;60.88
75740;BME280;64357;51.344;6.550;2022-11-15T14:52:25;100060.91;;;13.63;61.60
75740;BME280;64357;51.344;6.550;2022-11-15T14:54:53;100062.56;;;13.62;61.50
75740;BME280;64357;51.344;6.550;2022-11-15T14:57:18;100058.97;;;13.60;61.71
75740;BME280;64357;51.344;6.550;2022-11-15T14:59:44;100063.38;;;13.61;61.99
75740;BME280;64357;51.344;6.550;2022-11-15T15:02:23;100054.00;;;13.62;61.69
75740;BME280;64357;51.344;6.550;2022-11-15T15:04:52;100046.41;;;13.63;62.00
75740;BME280;64357;51.344;6.550;2022-11-15T15:07:18;100042.94;;;13.63;61.97
75740;BME280;64357;51.344;6.550;2022-11-15T15:09:44;100043.59;;;13.60;62.37
75740;BME280;64357;51.344;6.550;2022-11-15T15:12:22;100043.38;;;13.57;62.61
75740;BME280;64357;51.344;6.550;2022-11-15T15:14:49;100037.88;;;13.52;63.14
75740;BME280;64357;51.344;6.550;2022-11-15T15:17:17;100031.66;;;13.49;63.42
75740;BME280;64357;51.344;6.550;2022-11-15T15:19:42;100026.38;;;13.47;63.61
75740;BME280;64357;51.344;6.550;2022-11-15T15:22:19;100032.97;;;13.44;63.61
75740;BME280;64357;51.344;6.550;2022-11-15T15:24:47;100020.94;;;13.43;64.03
75740;BME280;64357;51.344;6.550;2022-11-15T15:27:12;100018.22;;;13.41;64.26
75740;BME280;64357;51.344;6.550;2022-11-15T15:29:40;100022.47;;;13.41;64.35
75740;BME280;64357;51.344;6.550;2022-11-15T15:32:08;100015.56;;;13.40;64.15
75740;BME280;64357;51.344;6.550;2022-11-15T15:34:33;100007.63;;;13.37;64.70
75740;BME280;64357;51.344;6.550;2022-11-15T15:39:47;100012.66;;;13.35;64.97
75740;BME280;64357;51.344;6.550;2022-11-15T15:42:13;99994.34;;;13.30;64.90
75740;BME280;64357;51.344;6.550;2022-11-15T15:44:38;100005.75;;;13.34;65.39